createdAt,value
2023-04-25T00:01:34.808Z,97092.56
2023-04-25T00:04:02.033Z,97091.13
2023-04-25T00:06:29.299Z,97102.31
2023-04-25T00:09:01.293Z,97085.50
2023-04-25T00:11:28.167Z,97099.91
2023-04-25T00:13:55.481Z,97087.72
2023-04-25T00:16:22.375Z,97090.63
2023-04-25T00:18:52.471Z,97087.78
2023-04-25T00:21:20.997Z,97089.91
2023-04-25T00:23:48.504Z,97098.91
2023-04-25T00:26:15.455Z,97097.25
2023-04-25T00:28:52.680Z,97092.75
2023-04-25T00:31:19.710Z,97101.28
2023-04-25T00:33:46.618Z,97105.63
2023-04-25T00:36:13.542Z,97092.03
2023-04-25T00:38:44.547Z,97098.47
2023-04-25T00:41:11.464Z,97095.16
2023-04-25T00:43:38.596Z,97097.84
2023-04-25T00:46:05.504Z,97106.16
2023-04-25T00:48:50.852Z,97099.88
2023-04-25T00:51:21.581Z,97105.84
2023-04-25T00:53:51.070Z,97105.19
2023-04-25T00:56:18.437Z,97111.19
2023-04-25T00:58:49.395Z,97101.41
2023-04-25T01:01:16.340Z,97111.53
2023-04-25T01:03:44.081Z,97100.56
2023-04-25T01:06:11.663Z,97113.84
2023-04-25T01:08:54.979Z,97095.16
2023-04-25T01:11:21.838Z,97104.06
2023-04-25T01:13:49.219Z,97104.53
2023-04-25T01:16:16.496Z,97107.19
2023-04-25T01:19:14.663Z,97108.31
2023-04-25T01:21:41.814Z,97120.97
2023-04-25T01:24:09.114Z,97125.72
2023-04-25T01:26:36.856Z,97116.69
2023-04-25T01:32:45.566Z,97097.87
2023-04-25T01:35:13.332Z,97105.72
2023-04-25T01:38:30.023Z,97118.13
2023-04-25T01:40:57.416Z,97108.94
2023-04-25T01:43:24.505Z,97105.72
2023-04-25T01:45:52.769Z,97104.47
2023-04-25T01:48:43.380Z,97114.88
2023-04-25T01:51:11.006Z,97107.91
2023-04-25T01:53:37.860Z,97112.44
2023-04-25T01:56:05.158Z,97113.66
2023-04-25T01:58:36.105Z,97116.28
2023-04-25T02:01:03.425Z,97101.78
2023-04-25T02:03:32.498Z,97103.06
2023-04-25T02:05:59.585Z,97094.12
2023-04-25T02:08:50.555Z,97102.25
2023-04-25T02:11:17.895Z,97100.53
2023-04-25T02:13:44.521Z,97098.16
2023-04-25T02:16:11.467Z,97105.50
2023-04-25T02:18:49.597Z,97098.69
2023-04-25T02:21:16.484Z,97108.47
2023-04-25T02:23:43.365Z,97104.63
2023-04-25T02:26:10.230Z,97098.72
2023-04-25T02:29:05.996Z,97100.69
2023-04-25T02:31:32.997Z,97095.53
2023-04-25T02:33:59.863Z,97105.91
2023-04-25T02:36:27.413Z,97106.53
2023-04-25T02:39:11.668Z,97108.91
2023-04-25T02:41:38.627Z,97107.28
2023-04-25T02:44:05.570Z,97104.22
2023-04-25T02:46:39.615Z,97109.53
2023-04-25T02:49:23.954Z,97111.69
2023-04-25T02:51:50.911Z,97112.72
2023-04-25T02:54:17.832Z,97110.38
2023-04-25T02:56:44.669Z,97108.44
2023-04-25T02:59:13.382Z,97112.47
2023-04-25T03:01:40.257Z,97111.66
2023-04-25T03:04:07.141Z,97109.44
2023-04-25T03:06:34.101Z,97116.19
2023-04-25T03:09:08.869Z,97099.38
2023-04-25T03:11:35.843Z,97109.81
2023-04-25T03:14:02.678Z,97115.13
2023-04-25T03:16:29.436Z,97106.91
2023-04-25T03:19:21.656Z,97106.75
2023-04-25T03:21:48.782Z,97111.41
2023-04-25T03:24:15.661Z,97095.53
2023-04-25T03:26:42.491Z,97103.84
2023-04-25T03:29:17.384Z,97104.22
2023-04-25T03:31:44.379Z,97098.59
2023-04-25T03:34:11.355Z,97091.34
2023-04-25T03:36:39.179Z,97082.28
2023-04-25T03:39:20.723Z,97103.88
2023-04-25T03:41:47.721Z,97100.94
2023-04-25T03:44:14.990Z,97103.53
2023-04-25T03:46:41.866Z,97101.19
2023-04-25T03:49:28.265Z,97104.59
2023-04-25T03:51:55.148Z,97102.22
2023-04-25T03:54:22.097Z,97108.34
2023-04-25T03:56:49.746Z,97108.41
2023-04-25T03:59:39.340Z,97111.00
2023-04-25T04:02:06.318Z,97119.56
2023-04-25T04:04:33.493Z,97111.97
2023-04-25T04:07:00.898Z,97116.72
2023-04-25T04:09:45.610Z,97118.88
2023-04-25T04:12:12.479Z,97119.44
2023-04-25T04:14:39.331Z,97112.31
2023-04-25T04:17:07.152Z,97115.16
2023-04-25T04:19:40.861Z,97110.91
2023-04-25T04:22:07.713Z,97123.38
2023-04-25T04:24:34.595Z,97126.47
2023-04-25T04:27:01.444Z,97123.97
2023-04-25T04:33:34.488Z,97129.97
2023-04-25T04:36:02.030Z,97136.72
2023-04-25T04:38:42.091Z,97137.31
2023-04-25T04:41:09.427Z,97139.75
2023-04-25T04:43:36.302Z,97134.44
2023-04-25T04:46:04.663Z,97136.25
2023-04-25T04:48:51.112Z,97142.16
2023-04-25T04:51:17.989Z,97139.75
2023-04-25T04:53:44.852Z,97141.19
2023-04-25T04:56:11.710Z,97148.44
2023-04-25T04:58:39.574Z,97151.69
2023-04-25T05:01:06.460Z,97139.62
2023-04-25T05:03:33.451Z,97147.50
2023-04-25T05:06:00.370Z,97145.53
2023-04-25T05:08:29.047Z,97152.81
2023-04-25T05:10:55.994Z,97139.28
2023-04-25T05:13:22.862Z,97149.16
2023-04-25T05:15:49.717Z,97151.91
2023-04-25T05:18:18.617Z,97158.94
2023-04-25T05:20:45.629Z,97154.00
2023-04-25T05:23:12.470Z,97156.81
2023-04-25T05:25:39.342Z,97156.22
2023-04-25T05:28:29.040Z,97165.87
2023-04-25T05:30:55.937Z,97156.19
2023-04-25T05:33:22.856Z,97164.81
2023-04-25T05:35:49.791Z,97163.44
2023-04-25T05:38:29.194Z,97163.03
2023-04-25T05:40:56.041Z,97167.28
2023-04-25T05:43:22.885Z,97163.66
2023-04-25T05:45:49.828Z,97171.97
2023-04-25T05:48:18.700Z,97165.75
2023-04-25T05:50:45.599Z,97156.53
2023-04-25T05:53:12.506Z,97154.94
2023-04-25T05:55:39.382Z,97159.06
2023-04-25T05:58:28.062Z,97155.78
2023-04-25T06:00:55.434Z,97160.88
2023-04-25T06:03:22.604Z,97152.44
2023-04-25T06:05:49.765Z,97164.28
2023-04-25T06:08:16.720Z,97163.69
2023-04-25T06:10:43.790Z,97155.53
2023-04-25T06:13:10.674Z,97168.63
2023-04-25T06:15:37.567Z,97174.84
2023-04-25T06:18:04.588Z,97172.22
2023-04-25T06:20:31.551Z,97172.91
2023-04-25T06:22:58.474Z,97166.50
2023-04-25T06:25:25.435Z,97171.59
2023-04-25T06:27:52.392Z,97172.09
2023-04-25T06:30:23.630Z,97178.72
2023-04-25T06:32:50.791Z,97167.31
2023-04-25T06:35:17.894Z,97173.00
2023-04-25T06:37:44.862Z,97169.41
2023-04-25T06:40:14.681Z,97170.53
2023-04-25T06:42:50.608Z,97166.56
2023-04-25T06:45:32.722Z,97157.72
2023-04-25T06:48:00.164Z,97157.41
2023-04-25T06:50:27.487Z,97164.63
2023-04-25T06:52:56.503Z,97164.56
2023-04-25T06:55:23.387Z,97148.47
2023-04-25T06:57:50.304Z,97162.34
2023-04-25T07:00:17.634Z,97149.97
2023-04-25T07:02:44.883Z,97161.59
2023-04-25T07:05:11.969Z,97152.72
2023-04-25T07:07:54.261Z,97155.53
2023-04-25T07:10:22.508Z,97150.34
2023-04-25T07:12:49.444Z,97157.41
2023-04-25T07:15:16.465Z,97147.22
2023-04-25T07:17:43.610Z,97144.44
2023-04-25T07:20:17.394Z,97152.00
2023-04-25T07:22:49.943Z,97145.81
2023-04-25T07:25:21.919Z,97145.31
2023-04-25T07:30:33.002Z,97146.34
2023-04-25T07:33:36.997Z,97148.69
2023-04-25T07:36:08.400Z,97150.87
2023-04-25T07:38:37.880Z,97151.06
2023-04-25T07:41:05.060Z,97155.09
2023-04-25T07:43:34.327Z,97148.16
2023-04-25T07:46:01.302Z,97158.53
2023-04-25T07:48:28.228Z,97146.28
2023-04-25T07:50:58.774Z,97163.59
2023-04-25T07:53:25.819Z,97152.91
2023-04-25T07:55:52.828Z,97153.16
2023-04-25T07:58:22.965Z,97151.44
2023-04-25T08:00:50.331Z,97163.16
2023-04-25T08:03:17.451Z,97158.87
2023-04-25T08:05:44.805Z,97153.44
2023-04-25T08:08:11.760Z,97143.72
2023-04-25T08:10:38.648Z,97151.13
2023-04-25T08:13:05.548Z,97150.31
2023-04-25T08:15:32.629Z,97147.66
2023-04-25T08:18:00.694Z,97149.06
2023-04-25T08:20:30.726Z,97158.25
2023-04-25T08:22:57.720Z,97148.56
2023-04-25T08:25:24.579Z,97149.47
2023-04-25T08:27:51.804Z,97139.16
2023-04-25T08:30:18.643Z,97148.09
2023-04-25T08:32:45.548Z,97153.41
2023-04-25T08:35:12.544Z,97144.81
2023-04-25T08:37:39.478Z,97141.13
2023-04-25T08:40:08.292Z,97151.34
2023-04-25T08:42:36.580Z,97149.44
2023-04-25T08:45:07.096Z,97134.09
2023-04-25T08:47:35.859Z,97154.25
2023-04-25T08:50:08.036Z,97135.13
2023-04-25T08:52:39.279Z,97149.94
2023-04-25T08:55:09.591Z,97152.53
2023-04-25T08:57:38.014Z,97149.87
2023-04-25T09:00:05.472Z,97152.72
2023-04-25T09:02:32.566Z,97144.47
2023-04-25T09:04:59.822Z,97144.56
2023-04-25T09:07:26.954Z,97148.34
2023-04-25T09:09:53.805Z,97148.47
2023-04-25T09:12:21.601Z,97146.94
2023-04-25T09:15:12.360Z,97159.63
2023-04-25T09:17:41.605Z,97147.75
2023-04-25T09:20:13.987Z,97152.84
2023-04-25T09:22:41.143Z,97147.03
2023-04-25T09:25:12.964Z,97148.47
2023-04-25T09:27:53.351Z,97147.62
2023-04-25T09:30:20.573Z,97145.81
2023-04-25T09:32:48.463Z,97143.44
2023-04-25T09:35:26.514Z,97151.37
2023-04-25T09:37:53.404Z,97153.16
2023-04-25T09:40:20.615Z,97155.38
2023-04-25T09:42:47.571Z,97149.91
2023-04-25T09:45:16.258Z,97162.22
2023-04-25T09:47:45.156Z,97151.25
2023-04-25T09:50:20.489Z,97159.38
2023-04-25T09:52:47.459Z,97161.34
2023-04-25T09:55:14.415Z,97138.97
2023-04-25T09:57:42.279Z,97162.59
2023-04-25T10:00:13.417Z,97158.78
2023-04-25T10:02:44.140Z,97171.66
2023-04-25T10:05:11.862Z,97170.72
2023-04-25T10:07:39.641Z,97171.66
2023-04-25T10:10:07.188Z,97170.81
2023-04-25T10:12:35.674Z,97161.75
2023-04-25T10:15:04.293Z,97166.72
2023-04-25T10:17:31.376Z,97155.16
2023-04-25T10:19:58.814Z,97166.03
2023-04-25T10:22:34.353Z,97170.91
2023-04-25T10:25:02.137Z,97171.34
2023-04-25T10:27:29.553Z,97168.75
2023-04-25T10:30:16.615Z,97167.31
2023-04-25T10:32:44.250Z,97164.44
2023-04-25T10:35:17.928Z,97159.94
2023-04-25T10:38:07.434Z,97158.53
2023-04-25T10:40:34.736Z,97153.22
2023-04-25T10:43:32.786Z,97161.44
2023-04-25T10:46:02.970Z,97158.31
2023-04-25T10:48:33.181Z,97158.59
2023-04-25T10:51:10.515Z,97156.03
2023-04-25T10:53:39.699Z,97152.19
2023-04-25T10:56:20.596Z,97158.13
2023-04-25T10:58:48.673Z,97144.44
2023-04-25T11:01:21.960Z,97160.59
2023-04-25T11:03:51.889Z,97155.72
2023-04-25T11:06:29.262Z,97157.87
2023-04-25T11:08:56.172Z,97162.38
2023-04-25T11:11:23.077Z,97157.31
2023-04-25T11:13:51.064Z,97154.22
2023-04-25T11:16:27.457Z,97154.91
2023-04-25T11:18:58.598Z,97154.03
2023-04-25T11:21:29.051Z,97138.75
2023-04-25T11:23:57.860Z,97151.03
2023-04-25T11:26:26.121Z,97156.13
2023-04-25T11:28:53.374Z,97144.72
2023-04-25T11:31:23.647Z,97147.91
2023-04-25T11:33:50.934Z,97148.06
2023-04-25T11:36:18.000Z,97137.38
2023-04-25T11:38:44.918Z,97139.22
2023-04-25T11:41:12.723Z,97129.69
2023-04-25T11:43:40.792Z,97143.19
2023-04-25T11:46:09.291Z,97125.19
2023-04-25T11:48:43.683Z,97136.31
2023-04-25T11:51:10.675Z,97139.75
2023-04-25T11:53:37.563Z,97133.00
2023-04-25T11:56:11.470Z,97123.19
2023-04-25T11:59:01.919Z,97131.59
2023-04-25T12:01:35.335Z,97116.78
2023-04-25T12:04:14.392Z,97114.78
2023-04-25T12:06:43.658Z,97125.50
2023-04-25T12:09:17.039Z,97123.25
2023-04-25T12:11:45.388Z,97121.41
2023-04-25T12:14:13.056Z,97123.56
2023-04-25T12:16:47.675Z,97113.00
2023-04-25T12:19:18.260Z,97114.63
2023-04-25T12:21:57.210Z,97109.56
2023-04-25T12:24:28.571Z,97102.22
2023-04-25T12:27:03.494Z,97110.91
2023-04-25T12:29:42.002Z,97111.91
2023-04-25T12:32:16.604Z,97104.75
2023-04-25T12:34:43.760Z,97104.03
2023-04-25T12:37:11.620Z,97100.28
2023-04-25T12:39:38.704Z,97092.06
2023-04-25T12:42:09.294Z,97098.94
2023-04-25T12:44:36.781Z,97092.97
2023-04-25T12:47:04.603Z,97085.78
2023-04-25T12:49:31.705Z,97088.50
2023-04-25T12:51:58.815Z,97092.59
2023-04-25T12:54:26.713Z,97088.06
2023-04-25T12:56:53.848Z,97086.69
2023-04-25T12:59:21.677Z,97088.38
2023-04-25T13:01:48.846Z,97078.41
2023-04-25T13:04:16.464Z,97084.13
2023-04-25T13:06:43.701Z,97075.59
2023-04-25T13:09:10.729Z,97084.06
2023-04-25T13:11:37.618Z,97067.31
2023-04-25T13:14:04.613Z,97073.09
2023-04-25T13:16:31.700Z,97065.72
2023-04-25T13:18:59.402Z,97066.63
2023-04-25T13:21:26.715Z,97072.16
2023-04-25T13:23:53.949Z,97069.88
2023-04-25T13:26:21.386Z,97067.16
2023-04-25T13:28:48.331Z,97063.41
2023-04-25T13:31:15.205Z,97072.06
2023-04-25T13:33:42.106Z,97082.59
2023-04-25T13:36:09.221Z,97080.88
2023-04-25T13:38:36.143Z,97081.94
2023-04-25T13:41:03.009Z,97082.59
2023-04-25T13:43:29.936Z,97089.72
2023-04-25T13:45:56.945Z,97082.09
2023-04-25T13:48:25.216Z,97085.31
2023-04-25T13:50:52.079Z,97079.34
2023-04-25T13:53:19.050Z,97070.91
2023-04-25T13:55:46.100Z,97072.28
2023-04-25T13:58:13.003Z,97076.69
2023-04-25T14:00:40.715Z,97069.91
2023-04-25T14:03:09.323Z,97087.88
2023-04-25T14:05:40.530Z,97089.44
2023-04-25T14:08:08.775Z,97093.28
2023-04-25T14:10:36.349Z,97079.28
2023-04-25T14:13:04.557Z,97080.94
2023-04-25T14:15:33.600Z,97075.94
2023-04-25T14:18:01.884Z,97081.84
2023-04-25T14:20:29.162Z,97086.47
2023-04-25T14:22:57.241Z,97075.00
2023-04-25T14:25:24.765Z,97082.31
2023-04-25T14:27:51.849Z,97081.75
2023-04-25T14:30:22.137Z,97086.06
2023-04-25T14:32:50.701Z,97090.94
2023-04-25T14:35:18.128Z,97097.22
2023-04-25T14:37:45.253Z,97105.69
2023-04-25T14:40:14.203Z,97110.34
2023-04-25T14:42:41.442Z,97118.75
2023-04-25T14:45:09.828Z,97113.47
2023-04-25T14:47:38.262Z,97126.06
2023-04-25T14:50:06.317Z,97122.75
2023-04-25T14:52:33.308Z,97114.50
2023-04-25T14:55:03.169Z,97122.41
2023-04-25T14:57:30.040Z,97108.31
2023-04-25T14:59:56.947Z,97098.19
2023-04-25T15:02:25.330Z,97108.09
2023-04-25T15:04:52.382Z,97109.38
2023-04-25T15:07:19.306Z,97110.34
2023-04-25T15:09:46.204Z,97109.50
2023-04-25T15:12:13.427Z,97110.31
2023-04-25T15:14:40.336Z,97109.72
2023-04-25T15:17:07.724Z,97106.06
2023-04-25T15:19:34.617Z,97096.72
2023-04-25T15:22:04.676Z,97105.00
2023-04-25T15:24:31.777Z,97105.31
2023-04-25T15:26:59.496Z,97101.16
2023-04-25T15:29:27.379Z,97094.19
2023-04-25T15:31:54.508Z,97091.59
2023-04-25T15:34:21.651Z,97094.63
2023-04-25T15:36:48.741Z,97095.34
2023-04-25T15:39:15.694Z,97093.97
2023-04-25T15:41:42.580Z,97086.66
2023-04-25T15:44:11.255Z,97097.72
2023-04-25T15:46:38.654Z,97102.47
2023-04-25T15:49:05.626Z,97096.03
2023-04-25T15:51:33.877Z,97098.94
2023-04-25T15:54:02.639Z,97092.53
2023-04-25T15:56:29.729Z,97104.09
2023-04-25T15:58:56.658Z,97105.53
2023-04-25T16:01:24.770Z,97097.97
2023-04-25T16:03:53.364Z,97110.22
2023-04-25T16:06:20.598Z,97116.38
2023-04-25T16:08:47.608Z,97112.22
2023-04-25T16:11:14.975Z,97109.38
2023-04-25T16:13:41.882Z,97100.09
2023-04-25T16:16:08.915Z,97102.94
2023-04-25T16:18:35.981Z,97099.13
2023-04-25T16:21:03.655Z,97112.56
2023-04-25T16:23:31.475Z,97103.16
2023-04-25T16:25:58.355Z,97110.34
2023-04-25T16:28:25.570Z,97107.75
2023-04-25T16:30:52.426Z,97109.19
2023-04-25T16:33:19.391Z,97107.88
2023-04-25T16:35:46.254Z,97107.31
2023-04-25T16:38:13.137Z,97110.13
2023-04-25T16:40:40.336Z,97117.19
2023-04-25T16:43:07.200Z,97114.06
2023-04-25T16:45:34.093Z,97112.66
2023-04-25T16:48:00.973Z,97122.41
2023-04-25T16:50:27.939Z,97125.09
2023-04-25T16:52:54.809Z,97125.06
2023-04-25T16:55:21.719Z,97133.31
2023-04-25T16:57:48.619Z,97126.59
2023-04-25T17:00:16.254Z,97134.53
2023-04-25T17:02:43.686Z,97139.22
2023-04-25T17:05:10.899Z,97144.47
2023-04-25T17:07:37.795Z,97135.06
2023-04-25T17:10:05.350Z,97133.34
2023-04-25T17:12:32.240Z,97141.22
2023-04-25T17:15:00.550Z,97151.56
2023-04-25T17:17:28.003Z,97145.28
2023-04-25T17:19:55.184Z,97147.91
2023-04-25T17:22:22.547Z,97158.00
2023-04-25T17:24:49.839Z,97152.91
2023-04-25T17:27:16.885Z,97162.03
2023-04-25T17:29:43.802Z,97156.06
2023-04-25T17:32:10.875Z,97163.09
2023-04-25T17:34:40.213Z,97162.09
2023-04-25T17:37:09.766Z,97167.69
2023-04-25T17:39:37.020Z,97167.91
2023-04-25T17:42:04.049Z,97174.91
2023-04-25T17:44:31.157Z,97178.97
2023-04-25T17:46:58.073Z,97176.53
2023-04-25T17:49:24.934Z,97176.72
2023-04-25T17:51:51.838Z,97182.19
2023-04-25T17:54:19.017Z,97186.84
2023-04-25T17:56:48.751Z,97186.72
2023-04-25T17:59:15.592Z,97193.53
2023-04-25T18:01:47.655Z,97195.91
2023-04-25T18:04:15.064Z,97203.37
2023-04-25T18:06:41.902Z,97211.78
2023-04-25T18:09:16.205Z,97203.09
2023-04-25T18:11:46.731Z,97217.50
2023-04-25T18:14:14.737Z,97218.53
2023-04-25T18:16:45.081Z,97223.47
2023-04-25T18:19:12.113Z,97218.84
2023-04-25T18:21:39.213Z,97233.53
2023-04-25T18:24:08.704Z,97232.81
2023-04-25T18:26:35.952Z,97232.00
2023-04-25T18:29:04.065Z,97243.72
2023-04-25T18:31:32.310Z,97248.00
2023-04-25T18:34:02.671Z,97243.78
2023-04-25T18:36:29.736Z,97254.00
2023-04-25T18:38:59.523Z,97258.31
2023-04-25T18:41:51.928Z,97268.66
2023-04-25T18:44:16.526Z,97276.66
2023-04-25T18:46:50.470Z,97280.78
2023-04-25T18:49:17.318Z,97283.06
2023-04-25T18:51:44.407Z,97286.59
2023-04-25T18:54:12.150Z,97279.87
2023-04-25T18:56:41.822Z,97283.28
2023-04-25T18:59:08.651Z,97279.34
2023-04-25T19:01:35.724Z,97278.59
2023-04-25T19:04:05.164Z,97280.44
2023-04-25T19:06:33.651Z,97283.97
2023-04-25T19:09:00.520Z,97274.97
2023-04-25T19:11:27.441Z,97282.06
2023-04-25T19:13:57.380Z,97284.91
2023-04-25T19:16:26.507Z,97297.19
2023-04-25T19:18:56.459Z,97281.94
2023-04-25T19:21:23.807Z,97297.84
2023-04-25T19:23:52.973Z,97288.47
2023-04-25T19:26:20.928Z,97297.94
2023-04-25T19:28:47.992Z,97293.16
2023-04-25T19:31:14.952Z,97281.00
2023-04-25T19:33:42.401Z,97292.31
2023-04-25T19:36:09.257Z,97302.81
2023-04-25T19:38:36.279Z,97303.28
2023-04-25T19:41:03.127Z,97300.69
2023-04-25T19:43:30.971Z,97298.38
2023-04-25T19:45:58.095Z,97313.09
2023-04-25T19:48:25.073Z,97305.50
2023-04-25T19:50:52.148Z,97310.56
2023-04-25T19:53:19.001Z,97313.06
2023-04-25T19:55:45.860Z,97314.78
2023-04-25T19:58:14.518Z,97316.78
2023-04-25T20:00:41.451Z,97322.91
2023-04-25T20:03:10.778Z,97331.31
2023-04-25T20:05:37.879Z,97331.66
2023-04-25T20:08:04.812Z,97330.31
2023-04-25T20:10:31.989Z,97353.94
2023-04-25T20:12:58.854Z,97334.41
2023-04-25T20:15:25.814Z,97336.38
2023-04-25T20:17:52.825Z,97346.22
2023-04-25T20:20:20.289Z,97342.44
2023-04-25T20:22:47.163Z,97350.78
2023-04-25T20:25:14.088Z,97353.44
2023-04-25T20:27:41.060Z,97346.84
2023-04-25T20:30:09.382Z,97353.06
2023-04-25T20:32:37.248Z,97348.53
2023-04-25T20:35:05.743Z,97353.59
2023-04-25T20:37:32.929Z,97356.72
2023-04-25T20:40:01.053Z,97357.00
2023-04-25T20:42:28.221Z,97367.81
2023-04-25T20:44:55.324Z,97376.78
2023-04-25T20:47:22.546Z,97375.25
2023-04-25T20:49:50.083Z,97371.91
2023-04-25T20:52:17.378Z,97377.81
2023-04-25T20:54:50.382Z,97376.63
2023-04-25T20:57:17.732Z,97377.16
2023-04-25T20:59:44.956Z,97388.41
2023-04-25T21:02:15.882Z,97387.97
2023-04-25T21:04:44.426Z,97392.31
2023-04-25T21:07:14.979Z,97394.87
2023-04-25T21:09:43.077Z,97396.41
2023-04-25T21:12:09.948Z,97398.25
2023-04-25T21:14:36.826Z,97408.28
2023-04-25T21:17:04.569Z,97406.62
2023-04-25T21:19:31.728Z,97405.25
2023-04-25T21:21:58.896Z,97402.56
2023-04-25T21:24:27.357Z,97409.41
2023-04-25T21:26:54.362Z,97408.84
2023-04-25T21:29:21.227Z,97413.34
2023-04-25T21:31:48.355Z,97418.19
2023-04-25T21:34:15.266Z,97416.34
2023-04-25T21:36:42.307Z,97413.28
2023-04-25T21:39:10.924Z,97412.25
2023-04-25T21:41:38.138Z,97413.16
2023-04-25T21:44:05.066Z,97415.09
2023-04-25T21:46:32.013Z,97426.75
2023-04-25T21:48:59.025Z,97419.28
2023-04-25T21:51:25.920Z,97418.22
2023-04-25T21:53:53.082Z,97418.91
2023-04-25T21:56:19.914Z,97416.72
2023-04-25T21:58:46.565Z,97416.31
2023-04-25T22:01:13.488Z,97421.69
2023-04-25T22:03:40.707Z,97429.97
2023-04-25T22:06:07.800Z,97432.28
2023-04-25T22:08:34.679Z,97438.22
2023-04-25T22:11:02.963Z,97441.09
2023-04-25T22:13:30.059Z,97434.16
2023-04-25T22:15:57.096Z,97434.16
2023-04-25T22:18:24.008Z,97446.94
2023-04-25T22:20:50.937Z,97444.88
2023-04-25T22:23:17.860Z,97450.25
2023-04-25T22:25:45.006Z,97452.38
2023-04-25T22:28:13.181Z,97461.09
2023-04-25T22:30:40.049Z,97453.66
2023-04-25T22:33:07.158Z,97455.63
2023-04-25T22:35:34.198Z,97453.91
2023-04-25T22:38:01.747Z,97458.03
2023-04-25T22:40:28.675Z,97456.56
2023-04-25T22:42:55.585Z,97456.03
2023-04-25T22:45:22.436Z,97454.41
2023-04-25T22:47:49.370Z,97450.97
2023-04-25T22:50:17.237Z,97451.91
2023-04-25T22:52:44.229Z,97460.84
2023-04-25T22:55:12.524Z,97460.88
2023-04-25T22:57:39.787Z,97453.72
2023-04-25T23:00:16.163Z,97452.25
2023-04-25T23:02:46.226Z,97454.03
2023-04-25T23:05:13.731Z,97456.97
2023-04-25T23:07:40.749Z,97454.44
2023-04-25T23:10:08.677Z,97449.59
2023-04-25T23:12:35.712Z,97456.16
2023-04-25T23:15:05.154Z,97445.16
2023-04-25T23:17:32.271Z,97457.31
2023-04-25T23:19:59.338Z,97452.94
2023-04-25T23:22:26.275Z,97461.81
2023-04-25T23:24:53.208Z,97463.81
2023-04-25T23:27:20.168Z,97453.25
2023-04-25T23:29:53.468Z,97464.41
2023-04-25T23:32:20.786Z,97467.59
2023-04-25T23:34:47.690Z,97460.19
2023-04-25T23:37:14.542Z,97468.28
2023-04-25T23:39:41.492Z,97477.41
2023-04-25T23:42:08.349Z,97474.81
2023-04-25T23:44:35.061Z,97473.34
2023-04-25T23:47:02.007Z,97479.25
2023-04-25T23:49:28.875Z,97469.78
2023-04-25T23:51:55.704Z,97473.03
2023-04-25T23:54:22.411Z,97481.50
2023-04-25T23:56:49.248Z,97469.09
2023-04-25T23:59:16.343Z,97481.09
